sensor_id;sensor_type;location;lat;lon;timestamp;P1;durP1;ratioP1;P2;durP2;ratioP2
65691;SDS011;52411;52.716;6.696;2022-08-19T00:00:28;9.23;;;6.82;;
65691;SDS011;52411;52.716;6.696;2022-08-19T00:02:54;6.88;;;5.60;;
65691;SDS011;52411;52.716;6.696;2022-08-19T00:05:21;8.40;;;5.05;;
65691;SDS011;52411;52.716;6.696;2022-08-19T00:07:47;22.55;;;4.40;;
65691;SDS011;52411;52.716;6.696;2022-08-19T00:10:14;3.63;;;2.95;;
65691;SDS011;52411;52.716;6.696;2022-08-19T00:12:41;9.10;;;6.28;;
65691;SDS011;52411;52.716;6.696;2022-08-19T00:15:08;7.47;;;5.55;;
65691;SDS011;52411;52.716;6.696;2022-08-19T00:17:41;10.13;;;7.70;;
65691;SDS011;52411;52.716;6.696;2022-08-19T00:20:08;11.15;;;8.10;;
65691;SDS011;52411;52.716;6.696;2022-08-19T00:22:35;13.13;;;8.63;;
65691;SDS011;52411;52.716;6.696;2022-08-19T00:25:01;10.57;;;9.07;;
65691;SDS011;52411;52.716;6.696;2022-08-19T00:27:27;15.63;;;10.45;;
65691;SDS011;52411;52.716;6.696;2022-08-19T00:29:53;15.05;;;10.77;;
65691;SDS011;52411;52.716;6.696;2022-08-19T00:32:19;14.77;;;9.30;;
65691;SDS011;52411;52.716;6.696;2022-08-19T00:34:45;12.68;;;9.15;;
65691;SDS011;52411;52.716;6.696;2022-08-19T00:37:11;8.25;;;6.30;;
65691;SDS011;52411;52.716;6.696;2022-08-19T00:39:37;9.15;;;7.50;;
65691;SDS011;52411;52.716;6.696;2022-08-19T00:42:03;10.57;;;7.35;;
65691;SDS011;52411;52.716;6.696;2022-08-19T00:44:31;8.60;;;6.65;;
65691;SDS011;52411;52.716;6.696;2022-08-19T00:46:57;12.65;;;8.68;;
65691;SDS011;52411;52.716;6.696;2022-08-19T00:52:09;9.55;;;6.80;;
65691;SDS011;52411;52.716;6.696;2022-08-19T00:54:39;6.75;;;5.22;;
65691;SDS011;52411;52.716;6.696;2022-08-19T00:57:06;7.95;;;5.15;;
65691;SDS011;52411;52.716;6.696;2022-08-19T00:59:34;8.38;;;4.70;;
65691;SDS011;52411;52.716;6.696;2022-08-19T01:02:01;155.10;;;5.38;;
65691;SDS011;52411;52.716;6.696;2022-08-19T01:04:27;7.05;;;3.33;;
65691;SDS011;52411;52.716;6.696;2022-08-19T01:06:53;4.95;;;3.30;;
65691;SDS011;52411;52.716;6.696;2022-08-19T01:09:18;3.20;;;2.65;;
65691;SDS011;52411;52.716;6.696;2022-08-19T01:11:44;2.00;;;1.80;;
65691;SDS011;52411;52.716;6.696;2022-08-19T01:14:10;5.57;;;3.17;;
65691;SDS011;52411;52.716;6.696;2022-08-19T01:16:37;7.18;;;2.40;;
65691;SDS011;52411;52.716;6.696;2022-08-19T01:19:08;76.15;;;3.17;;
65691;SDS011;52411;52.716;6.696;2022-08-19T01:21:50;72.82;;;2.80;;
65691;SDS011;52411;52.716;6.696;2022-08-19T01:24:22;194.38;;;7.22;;
65691;SDS011;52411;52.716;6.696;2022-08-19T01:26:48;104.25;;;4.78;;
65691;SDS011;52411;52.716;6.696;2022-08-19T01:29:14;131.77;;;7.28;;
65691;SDS011;52411;52.716;6.696;2022-08-19T01:31:40;61.83;;;6.90;;
65691;SDS011;52411;52.716;6.696;2022-08-19T01:34:06;183.77;;;9.55;;
65691;SDS011;52411;52.716;6.696;2022-08-19T01:36:42;80.13;;;6.35;;
65691;SDS011;52411;52.716;6.696;2022-08-19T01:39:11;105.60;;;7.53;;
65691;SDS011;52411;52.716;6.696;2022-08-19T01:41:41;88.43;;;7.28;;
65691;SDS011;52411;52.716;6.696;2022-08-19T01:44:07;117.47;;;7.88;;
65691;SDS011;52411;52.716;6.696;2022-08-19T01:46:33;129.18;;;8.23;;
65691;SDS011;52411;52.716;6.696;2022-08-19T01:49:00;101.78;;;7.72;;
65691;SDS011;52411;52.716;6.696;2022-08-19T01:51:27;62.10;;;6.60;;
65691;SDS011;52411;52.716;6.696;2022-08-19T01:53:52;36.95;;;5.43;;
65691;SDS011;52411;52.716;6.696;2022-08-19T01:56:19;24.40;;;6.30;;
65691;SDS011;52411;52.716;6.696;2022-08-19T01:58:46;92.65;;;7.55;;
65691;SDS011;52411;52.716;6.696;2022-08-19T02:01:22;42.30;;;4.60;;
65691;SDS011;52411;52.716;6.696;2022-08-19T02:03:48;160.82;;;5.90;;
65691;SDS011;52411;52.716;6.696;2022-08-19T02:06:13;6.57;;;3.38;;
65691;SDS011;52411;52.716;6.696;2022-08-19T02:08:42;51.88;;;4.68;;
65691;SDS011;52411;52.716;6.696;2022-08-19T02:11:17;69.90;;;6.95;;
65691;SDS011;52411;52.716;6.696;2022-08-19T02:13:45;70.15;;;5.95;;
65691;SDS011;52411;52.716;6.696;2022-08-19T02:16:11;37.28;;;5.40;;
65691;SDS011;52411;52.716;6.696;2022-08-19T02:18:37;25.13;;;6.00;;
65691;SDS011;52411;52.716;6.696;2022-08-19T02:21:02;40.88;;;5.47;;
65691;SDS011;52411;52.716;6.696;2022-08-19T02:23:28;11.63;;;8.88;;
65691;SDS011;52411;52.716;6.696;2022-08-19T02:25:54;20.80;;;5.90;;
65691;SDS011;52411;52.716;6.696;2022-08-19T02:28:19;46.10;;;6.15;;
65691;SDS011;52411;52.716;6.696;2022-08-19T02:30:46;164.88;;;7.55;;
65691;SDS011;52411;52.716;6.696;2022-08-19T02:33:12;213.48;;;9.30;;
65691;SDS011;52411;52.716;6.696;2022-08-19T02:35:40;302.00;;;9.77;;
65691;SDS011;52411;52.716;6.696;2022-08-19T02:38:07;28.77;;;5.55;;
65691;SDS011;52411;52.716;6.696;2022-08-19T02:40:52;24.80;;;4.88;;
65691;SDS011;52411;52.716;6.696;2022-08-19T02:43:27;7.25;;;4.55;;
65691;SDS011;52411;52.716;6.696;2022-08-19T02:45:53;5.82;;;4.10;;
65691;SDS011;52411;52.716;6.696;2022-08-19T02:48:20;248.90;;;11.43;;
65691;SDS011;52411;52.716;6.696;2022-08-19T02:50:48;177.73;;;6.45;;
65691;SDS011;52411;52.716;6.696;2022-08-19T02:53:20;202.57;;;7.63;;
65691;SDS011;52411;52.716;6.696;2022-08-19T02:55:48;271.45;;;9.10;;
65691;SDS011;52411;52.716;6.696;2022-08-19T02:58:15;343.48;;;11.27;;
65691;SDS011;52411;52.716;6.696;2022-08-19T03:00:45;525.13;;;16.00;;
65691;SDS011;52411;52.716;6.696;2022-08-19T03:03:14;273.58;;;12.88;;
65691;SDS011;52411;52.716;6.696;2022-08-19T03:05:40;349.00;;;14.90;;
65691;SDS011;52411;52.716;6.696;2022-08-19T03:08:07;187.68;;;13.75;;
65691;SDS011;52411;52.716;6.696;2022-08-19T03:10:39;163.38;;;14.25;;
65691;SDS011;52411;52.716;6.696;2022-08-19T03:13:10;26.33;;;11.70;;
65691;SDS011;52411;52.716;6.696;2022-08-19T03:15:44;75.90;;;13.40;;
65691;SDS011;52411;52.716;6.696;2022-08-19T03:18:11;44.10;;;11.32;;
65691;SDS011;52411;52.716;6.696;2022-08-19T03:20:44;18.48;;;7.78;;
65691;SDS011;52411;52.716;6.696;2022-08-19T03:23:12;12.48;;;7.25;;
65691;SDS011;52411;52.716;6.696;2022-08-19T03:25:43;10.00;;;6.75;;
65691;SDS011;52411;52.716;6.696;2022-08-19T03:28:11;24.60;;;6.50;;
65691;SDS011;52411;52.716;6.696;2022-08-19T03:30:38;334.15;;;12.02;;
65691;SDS011;52411;52.716;6.696;2022-08-19T03:33:05;391.02;;;14.65;;
65691;SDS011;52411;52.716;6.696;2022-08-19T03:35:36;254.93;;;11.30;;
65691;SDS011;52411;52.716;6.696;2022-08-19T03:38:03;83.60;;;8.18;;
65691;SDS011;52411;52.716;6.696;2022-08-19T03:40:30;186.45;;;9.90;;
65691;SDS011;52411;52.716;6.696;2022-08-19T03:42:56;236.40;;;9.80;;
65691;SDS011;52411;52.716;6.696;2022-08-19T03:45:22;164.82;;;8.50;;
65691;SDS011;52411;52.716;6.696;2022-08-19T03:47:48;162.93;;;7.90;;
65691;SDS011;52411;52.716;6.696;2022-08-19T03:50:14;154.65;;;7.97;;
65691;SDS011;52411;52.716;6.696;2022-08-19T03:52:40;146.68;;;7.95;;
65691;SDS011;52411;52.716;6.696;2022-08-19T03:55:06;81.32;;;6.00;;
65691;SDS011;52411;52.716;6.696;2022-08-19T03:57:32;105.47;;;6.93;;
65691;SDS011;52411;52.716;6.696;2022-08-19T03:59:59;133.35;;;8.50;;
65691;SDS011;52411;52.716;6.696;2022-08-19T04:02:26;97.03;;;5.78;;
65691;SDS011;52411;52.716;6.696;2022-08-19T04:04:52;74.20;;;5.95;;
65691;SDS011;52411;52.716;6.696;2022-08-19T04:07:20;76.68;;;5.43;;
65691;SDS011;52411;52.716;6.696;2022-08-19T04:09:46;121.43;;;7.35;;
65691;SDS011;52411;52.716;6.696;2022-08-19T04:12:13;85.43;;;6.88;;
65691;SDS011;52411;52.716;6.696;2022-08-19T04:14:39;55.33;;;5.05;;
65691;SDS011;52411;52.716;6.696;2022-08-19T04:17:05;45.65;;;5.20;;
65691;SDS011;52411;52.716;6.696;2022-08-19T04:19:31;38.58;;;5.40;;
65691;SDS011;52411;52.716;6.696;2022-08-19T04:21:58;100.13;;;5.82;;
65691;SDS011;52411;52.716;6.696;2022-08-19T04:24:24;175.95;;;8.73;;
65691;SDS011;52411;52.716;6.696;2022-08-19T04:26:50;74.03;;;4.93;;
65691;SDS011;52411;52.716;6.696;2022-08-19T04:29:21;67.57;;;5.15;;
65691;SDS011;52411;52.716;6.696;2022-08-19T04:31:50;61.08;;;5.22;;
65691;SDS011;52411;52.716;6.696;2022-08-19T04:34:17;101.75;;;6.03;;
65691;SDS011;52411;52.716;6.696;2022-08-19T04:36:47;86.18;;;5.93;;
65691;SDS011;52411;52.716;6.696;2022-08-19T04:39:16;89.43;;;8.57;;
65691;SDS011;52411;52.716;6.696;2022-08-19T04:41:44;91.88;;;9.85;;
65691;SDS011;52411;52.716;6.696;2022-08-19T04:44:30;56.10;;;8.90;;
65691;SDS011;52411;52.716;6.696;2022-08-19T04:47:00;79.45;;;10.40;;
65691;SDS011;52411;52.716;6.696;2022-08-19T04:49:26;45.80;;;9.48;;
65691;SDS011;52411;52.716;6.696;2022-08-19T04:51:53;27.08;;;9.43;;
65691;SDS011;52411;52.716;6.696;2022-08-19T04:54:20;12.88;;;9.45;;
65691;SDS011;52411;52.716;6.696;2022-08-19T04:56:48;11.48;;;8.55;;
65691;SDS011;52411;52.716;6.696;2022-08-19T04:59:15;9.95;;;7.20;;
65691;SDS011;52411;52.716;6.696;2022-08-19T05:01:42;21.55;;;6.40;;
65691;SDS011;52411;52.716;6.696;2022-08-19T05:04:08;9.65;;;6.78;;
65691;SDS011;52411;52.716;6.696;2022-08-19T05:06:34;60.50;;;8.88;;
65691;SDS011;52411;52.716;6.696;2022-08-19T05:09:02;123.03;;;9.23;;
65691;SDS011;52411;52.716;6.696;2022-08-19T05:11:31;139.73;;;8.48;;
65691;SDS011;52411;52.716;6.696;2022-08-19T05:13:59;117.40;;;8.70;;
65691;SDS011;52411;52.716;6.696;2022-08-19T05:16:26;121.93;;;7.97;;
65691;SDS011;52411;52.716;6.696;2022-08-19T05:18:52;151.35;;;9.30;;
65691;SDS011;52411;52.716;6.696;2022-08-19T05:21:38;88.47;;;6.45;;
65691;SDS011;52411;52.716;6.696;2022-08-19T05:24:23;63.95;;;7.28;;
65691;SDS011;52411;52.716;6.696;2022-08-19T05:26:50;101.45;;;7.50;;
65691;SDS011;52411;52.716;6.696;2022-08-19T05:29:20;120.70;;;9.25;;
65691;SDS011;52411;52.716;6.696;2022-08-19T05:31:47;65.35;;;7.97;;
65691;SDS011;52411;52.716;6.696;2022-08-19T05:34:17;46.53;;;6.55;;
65691;SDS011;52411;52.716;6.696;2022-08-19T05:36:46;41.45;;;7.90;;
65691;SDS011;52411;52.716;6.696;2022-08-19T05:39:15;29.27;;;8.68;;
65691;SDS011;52411;52.716;6.696;2022-08-19T05:41:46;35.72;;;10.75;;
65691;SDS011;52411;52.716;6.696;2022-08-19T05:44:18;15.38;;;10.60;;
65691;SDS011;52411;52.716;6.696;2022-08-19T05:46:44;33.17;;;10.93;;
65691;SDS011;52411;52.716;6.696;2022-08-19T05:49:14;15.80;;;10.10;;
65691;SDS011;52411;52.716;6.696;2022-08-19T05:51:41;16.80;;;11.15;;
65691;SDS011;52411;52.716;6.696;2022-08-19T05:54:07;17.15;;;11.25;;
65691;SDS011;52411;52.716;6.696;2022-08-19T05:56:34;16.98;;;11.55;;
65691;SDS011;52411;52.716;6.696;2022-08-19T05:59:03;17.20;;;11.55;;
65691;SDS011;52411;52.716;6.696;2022-08-19T06:01:33;16.73;;;11.63;;
65691;SDS011;52411;52.716;6.696;2022-08-19T06:03:59;22.45;;;13.68;;
65691;SDS011;52411;52.716;6.696;2022-08-19T06:06:25;25.02;;;14.90;;
65691;SDS011;52411;52.716;6.696;2022-08-19T06:08:51;20.88;;;14.40;;
65691;SDS011;52411;52.716;6.696;2022-08-19T06:11:34;23.55;;;15.43;;
65691;SDS011;52411;52.716;6.696;2022-08-19T06:14:03;24.98;;;15.57;;
65691;SDS011;52411;52.716;6.696;2022-08-19T06:16:34;26.52;;;15.65;;
65691;SDS011;52411;52.716;6.696;2022-08-19T06:19:01;24.73;;;14.90;;
65691;SDS011;52411;52.716;6.696;2022-08-19T06:21:29;31.10;;;17.60;;
65691;SDS011;52411;52.716;6.696;2022-08-19T06:23:56;27.85;;;16.75;;
65691;SDS011;52411;52.716;6.696;2022-08-19T06:26:22;29.80;;;17.33;;
65691;SDS011;52411;52.716;6.696;2022-08-19T06:28:49;34.25;;;18.15;;
65691;SDS011;52411;52.716;6.696;2022-08-19T06:31:20;38.05;;;19.63;;
65691;SDS011;52411;52.716;6.696;2022-08-19T06:33:48;38.90;;;20.20;;
65691;SDS011;52411;52.716;6.696;2022-08-19T06:36:22;38.55;;;19.98;;
65691;SDS011;52411;52.716;6.696;2022-08-19T06:38:54;38.42;;;21.80;;
65691;SDS011;52411;52.716;6.696;2022-08-19T06:41:22;41.33;;;22.20;;
65691;SDS011;52411;52.716;6.696;2022-08-19T06:43:48;44.72;;;23.00;;
65691;SDS011;52411;52.716;6.696;2022-08-19T06:46:15;43.42;;;21.65;;
65691;SDS011;52411;52.716;6.696;2022-08-19T06:48:42;38.30;;;21.48;;
65691;SDS011;52411;52.716;6.696;2022-08-19T06:51:08;37.58;;;21.35;;
65691;SDS011;52411;52.716;6.696;2022-08-19T06:53:34;41.10;;;22.27;;
65691;SDS011;52411;52.716;6.696;2022-08-19T06:55:59;36.25;;;21.98;;
65691;SDS011;52411;52.716;6.696;2022-08-19T06:58:31;33.25;;;20.52;;
65691;SDS011;52411;52.716;6.696;2022-08-19T07:01:01;31.95;;;20.33;;
65691;SDS011;52411;52.716;6.696;2022-08-19T07:03:32;35.28;;;20.75;;
65691;SDS011;52411;52.716;6.696;2022-08-19T07:06:04;34.83;;;21.13;;
65691;SDS011;52411;52.716;6.696;2022-08-19T07:08:30;36.97;;;21.90;;
65691;SDS011;52411;52.716;6.696;2022-08-19T07:10:57;34.45;;;21.60;;
65691;SDS011;52411;52.716;6.696;2022-08-19T07:13:22;33.20;;;21.55;;
65691;SDS011;52411;52.716;6.696;2022-08-19T07:15:49;33.67;;;21.00;;
65691;SDS011;52411;52.716;6.696;2022-08-19T07:18:16;36.90;;;21.85;;
65691;SDS011;52411;52.716;6.696;2022-08-19T07:20:43;36.30;;;21.90;;
65691;SDS011;52411;52.716;6.696;2022-08-19T07:23:09;35.53;;;21.90;;
65691;SDS011;52411;52.716;6.696;2022-08-19T07:25:36;33.47;;;21.45;;
65691;SDS011;52411;52.716;6.696;2022-08-19T07:28:02;29.90;;;20.25;;
65691;SDS011;52411;52.716;6.696;2022-08-19T07:30:28;33.00;;;21.17;;
65691;SDS011;52411;52.716;6.696;2022-08-19T07:32:54;29.42;;;20.02;;
65691;SDS011;52411;52.716;6.696;2022-08-19T07:35:21;34.65;;;20.75;;
65691;SDS011;52411;52.716;6.696;2022-08-19T07:37:48;33.47;;;21.05;;
65691;SDS011;52411;52.716;6.696;2022-08-19T07:40:14;39.78;;;21.90;;
65691;SDS011;52411;52.716;6.696;2022-08-19T07:42:40;31.23;;;20.48;;
65691;SDS011;52411;52.716;6.696;2022-08-19T07:45:08;33.15;;;22.33;;
65691;SDS011;52411;52.716;6.696;2022-08-19T07:47:34;32.60;;;21.05;;
65691;SDS011;52411;52.716;6.696;2022-08-19T07:50:00;27.95;;;20.73;;
65691;SDS011;52411;52.716;6.696;2022-08-19T07:52:25;29.30;;;20.95;;
65691;SDS011;52411;52.716;6.696;2022-08-19T07:54:51;29.48;;;21.58;;
65691;SDS011;52411;52.716;6.696;2022-08-19T07:57:17;30.73;;;20.25;;
65691;SDS011;52411;52.716;6.696;2022-08-19T07:59:44;27.25;;;20.30;;
65691;SDS011;52411;52.716;6.696;2022-08-19T08:02:10;30.23;;;20.20;;
65691;SDS011;52411;52.716;6.696;2022-08-19T08:04:35;30.30;;;19.90;;
65691;SDS011;52411;52.716;6.696;2022-08-19T08:07:19;30.02;;;20.45;;
65691;SDS011;52411;52.716;6.696;2022-08-19T08:10:05;27.83;;;19.70;;
65691;SDS011;52411;52.716;6.696;2022-08-19T08:12:34;24.02;;;18.83;;
65691;SDS011;52411;52.716;6.696;2022-08-19T08:15:05;27.52;;;18.63;;
65691;SDS011;52411;52.716;6.696;2022-08-19T08:17:32;25.13;;;18.80;;
65691;SDS011;52411;52.716;6.696;2022-08-19T08:19:58;25.45;;;19.20;;
65691;SDS011;52411;52.716;6.696;2022-08-19T08:22:24;26.00;;;19.15;;
65691;SDS011;52411;52.716;6.696;2022-08-19T08:25:11;23.75;;;19.30;;
65691;SDS011;52411;52.716;6.696;2022-08-19T08:27:39;24.63;;;18.42;;
65691;SDS011;52411;52.716;6.696;2022-08-19T08:30:07;27.83;;;19.65;;
65691;SDS011;52411;52.716;6.696;2022-08-19T08:35:08;24.50;;;17.88;;
65691;SDS011;52411;52.716;6.696;2022-08-19T08:37:36;23.02;;;18.23;;
65691;SDS011;52411;52.716;6.696;2022-08-19T08:40:06;25.80;;;19.23;;
65691;SDS011;52411;52.716;6.696;2022-08-19T08:43:02;27.07;;;19.33;;
65691;SDS011;52411;52.716;6.696;2022-08-19T08:45:33;25.17;;;18.23;;
65691;SDS011;52411;52.716;6.696;2022-08-19T08:48:07;26.13;;;18.70;;
65691;SDS011;52411;52.716;6.696;2022-08-19T08:50:43;24.52;;;18.80;;
65691;SDS011;52411;52.716;6.696;2022-08-19T08:53:12;22.58;;;18.25;;
65691;SDS011;52411;52.716;6.696;2022-08-19T08:55:40;22.70;;;18.92;;
65691;SDS011;52411;52.716;6.696;2022-08-19T08:58:09;23.42;;;19.27;;
65691;SDS011;52411;52.716;6.696;2022-08-19T09:00:44;24.10;;;19.58;;
65691;SDS011;52411;52.716;6.696;2022-08-19T09:03:19;24.83;;;19.52;;
65691;SDS011;52411;52.716;6.696;2022-08-19T09:14:19;24.65;;;19.98;;
65691;SDS011;52411;52.716;6.696;2022-08-19T09:16:57;24.48;;;20.27;;
65691;SDS011;52411;52.716;6.696;2022-08-19T09:19:24;25.20;;;20.65;;
65691;SDS011;52411;52.716;6.696;2022-08-19T09:21:50;30.23;;;21.83;;
65691;SDS011;52411;52.716;6.696;2022-08-19T09:24:15;23.33;;;19.65;;
65691;SDS011;52411;52.716;6.696;2022-08-19T09:26:41;23.48;;;19.35;;
65691;SDS011;52411;52.716;6.696;2022-08-19T09:29:08;25.35;;;19.70;;
65691;SDS011;52411;52.716;6.696;2022-08-19T09:31:34;24.83;;;18.90;;
65691;SDS011;52411;52.716;6.696;2022-08-19T09:34:00;24.02;;;18.33;;
65691;SDS011;52411;52.716;6.696;2022-08-19T09:36:29;24.45;;;19.05;;
65691;SDS011;52411;52.716;6.696;2022-08-19T09:39:02;25.17;;;19.92;;
65691;SDS011;52411;52.716;6.696;2022-08-19T09:41:29;23.20;;;19.55;;
65691;SDS011;52411;52.716;6.696;2022-08-19T09:43:55;23.92;;;20.00;;
65691;SDS011;52411;52.716;6.696;2022-08-19T09:46:23;23.98;;;18.63;;
65691;SDS011;52411;52.716;6.696;2022-08-19T09:48:51;21.83;;;18.20;;
65691;SDS011;52411;52.716;6.696;2022-08-19T09:51:18;22.10;;;17.90;;
65691;SDS011;52411;52.716;6.696;2022-08-19T09:53:47;24.35;;;18.83;;
65691;SDS011;52411;52.716;6.696;2022-08-19T09:56:18;26.65;;;19.50;;
65691;SDS011;52411;52.716;6.696;2022-08-19T09:58:45;24.65;;;19.80;;
65691;SDS011;52411;52.716;6.696;2022-08-19T10:01:16;24.10;;;18.15;;
65691;SDS011;52411;52.716;6.696;2022-08-19T10:03:44;22.85;;;18.80;;
65691;SDS011;52411;52.716;6.696;2022-08-19T10:06:20;24.50;;;16.40;;
65691;SDS011;52411;52.716;6.696;2022-08-19T10:08:49;24.15;;;18.90;;
65691;SDS011;52411;52.716;6.696;2022-08-19T10:11:16;23.67;;;19.30;;
65691;SDS011;52411;52.716;6.696;2022-08-19T10:13:44;25.30;;;19.23;;
65691;SDS011;52411;52.716;6.696;2022-08-19T10:16:17;25.45;;;19.00;;
65691;SDS011;52411;52.716;6.696;2022-08-19T10:18:47;19.77;;;15.20;;
65691;SDS011;52411;52.716;6.696;2022-08-19T10:21:19;14.70;;;12.57;;
65691;SDS011;52411;52.716;6.696;2022-08-19T10:23:49;16.30;;;14.45;;
65691;SDS011;52411;52.716;6.696;2022-08-19T10:26:18;15.95;;;13.25;;
65691;SDS011;52411;52.716;6.696;2022-08-19T10:28:45;16.67;;;14.85;;
65691;SDS011;52411;52.716;6.696;2022-08-19T10:31:19;17.42;;;13.50;;
65691;SDS011;52411;52.716;6.696;2022-08-19T10:33:47;17.90;;;14.20;;
65691;SDS011;52411;52.716;6.696;2022-08-19T10:36:17;15.43;;;13.15;;
65691;SDS011;52411;52.716;6.696;2022-08-19T10:38:45;20.70;;;16.38;;
65691;SDS011;52411;52.716;6.696;2022-08-19T10:41:15;19.85;;;16.50;;
65691;SDS011;52411;52.716;6.696;2022-08-19T10:43:42;18.75;;;15.65;;
65691;SDS011;52411;52.716;6.696;2022-08-19T10:46:12;18.17;;;15.35;;
65691;SDS011;52411;52.716;6.696;2022-08-19T10:48:40;17.25;;;14.45;;
65691;SDS011;52411;52.716;6.696;2022-08-19T10:51:07;17.33;;;15.15;;
65691;SDS011;52411;52.716;6.696;2022-08-19T10:53:52;17.70;;;14.57;;
65691;SDS011;52411;52.716;6.696;2022-08-19T10:56:18;16.15;;;13.50;;
65691;SDS011;52411;52.716;6.696;2022-08-19T10:59:03;17.17;;;13.10;;
65691;SDS011;52411;52.716;6.696;2022-08-19T11:01:29;16.70;;;13.00;;
65691;SDS011;52411;52.716;6.696;2022-08-19T11:03:58;16.27;;;12.65;;
65691;SDS011;52411;52.716;6.696;2022-08-19T11:06:24;14.77;;;12.57;;
65691;SDS011;52411;52.716;6.696;2022-08-19T11:08:50;14.65;;;12.95;;
65691;SDS011;52411;52.716;6.696;2022-08-19T11:11:19;14.85;;;12.55;;
65691;SDS011;52411;52.716;6.696;2022-08-19T11:13:45;14.30;;;12.30;;
65691;SDS011;52411;52.716;6.696;2022-08-19T11:16:15;15.02;;;13.02;;
65691;SDS011;52411;52.716;6.696;2022-08-19T11:18:43;12.10;;;10.50;;
65691;SDS011;52411;52.716;6.696;2022-08-19T11:21:13;15.23;;;10.73;;
65691;SDS011;52411;52.716;6.696;2022-08-19T11:23:46;14.25;;;11.40;;
65691;SDS011;52411;52.716;6.696;2022-08-19T11:26:13;14.32;;;11.45;;
65691;SDS011;52411;52.716;6.696;2022-08-19T11:28:39;12.95;;;11.18;;
65691;SDS011;52411;52.716;6.696;2022-08-19T11:31:12;15.30;;;12.07;;
65691;SDS011;52411;52.716;6.696;2022-08-19T11:33:40;15.35;;;12.77;;
65691;SDS011;52411;52.716;6.696;2022-08-19T11:36:06;13.20;;;11.80;;
65691;SDS011;52411;52.716;6.696;2022-08-19T11:38:32;15.05;;;11.48;;
65691;SDS011;52411;52.716;6.696;2022-08-19T11:41:01;17.00;;;13.23;;
65691;SDS011;52411;52.716;6.696;2022-08-19T11:43:29;16.80;;;13.50;;
65691;SDS011;52411;52.716;6.696;2022-08-19T11:45:55;17.27;;;13.32;;
65691;SDS011;52411;52.716;6.696;2022-08-19T11:48:22;16.55;;;12.85;;
65691;SDS011;52411;52.716;6.696;2022-08-19T11:50:51;16.58;;;14.00;;
65691;SDS011;52411;52.716;6.696;2022-08-19T11:53:20;15.82;;;13.25;;
65691;SDS011;52411;52.716;6.696;2022-08-19T11:55:46;15.25;;;12.43;;
65691;SDS011;52411;52.716;6.696;2022-08-19T11:58:13;15.85;;;12.77;;
65691;SDS011;52411;52.716;6.696;2022-08-19T12:00:40;14.98;;;13.52;;
65691;SDS011;52411;52.716;6.696;2022-08-19T12:03:07;14.48;;;12.00;;
65691;SDS011;52411;52.716;6.696;2022-08-19T12:05:33;14.13;;;12.73;;
65691;SDS011;52411;52.716;6.696;2022-08-19T12:08:01;16.23;;;12.50;;
65691;SDS011;52411;52.716;6.696;2022-08-19T12:10:26;18.33;;;14.00;;
65691;SDS011;52411;52.716;6.696;2022-08-19T12:12:52;17.50;;;13.88;;
65691;SDS011;52411;52.716;6.696;2022-08-19T12:15:18;14.82;;;13.32;;
65691;SDS011;52411;52.716;6.696;2022-08-19T12:17:43;14.18;;;12.55;;
65691;SDS011;52411;52.716;6.696;2022-08-19T12:20:10;14.75;;;12.85;;
65691;SDS011;52411;52.716;6.696;2022-08-19T12:22:38;16.58;;;13.18;;
65691;SDS011;52411;52.716;6.696;2022-08-19T12:25:09;12.30;;;11.00;;
65691;SDS011;52411;52.716;6.696;2022-08-19T12:27:36;9.18;;;7.35;;
65691;SDS011;52411;52.716;6.696;2022-08-19T12:30:04;9.95;;;8.88;;
65691;SDS011;52411;52.716;6.696;2022-08-19T12:32:33;8.50;;;7.53;;
65691;SDS011;52411;52.716;6.696;2022-08-19T12:34:59;10.82;;;8.50;;
65691;SDS011;52411;52.716;6.696;2022-08-19T12:37:25;12.82;;;11.30;;
65691;SDS011;52411;52.716;6.696;2022-08-19T12:39:50;13.35;;;12.05;;
65691;SDS011;52411;52.716;6.696;2022-08-19T12:42:16;14.25;;;12.68;;
65691;SDS011;52411;52.716;6.696;2022-08-19T12:44:43;11.23;;;9.38;;
65691;SDS011;52411;52.716;6.696;2022-08-19T12:47:10;11.55;;;9.55;;
65691;SDS011;52411;52.716;6.696;2022-08-19T12:49:38;13.13;;;11.30;;
65691;SDS011;52411;52.716;6.696;2022-08-19T12:52:04;12.25;;;10.00;;
65691;SDS011;52411;52.716;6.696;2022-08-19T12:54:32;11.48;;;10.27;;
65691;SDS011;52411;52.716;6.696;2022-08-19T12:56:59;11.70;;;10.32;;
65691;SDS011;52411;52.716;6.696;2022-08-19T12:59:25;16.42;;;12.13;;
65691;SDS011;52411;52.716;6.696;2022-08-19T13:01:52;11.70;;;10.50;;
65691;SDS011;52411;52.716;6.696;2022-08-19T13:04:18;11.90;;;10.70;;
65691;SDS011;52411;52.716;6.696;2022-08-19T13:06:43;13.50;;;11.93;;
65691;SDS011;52411;52.716;6.696;2022-08-19T13:09:09;14.30;;;12.05;;
65691;SDS011;52411;52.716;6.696;2022-08-19T13:11:36;12.30;;;10.40;;
65691;SDS011;52411;52.716;6.696;2022-08-19T13:14:02;11.27;;;10.05;;
65691;SDS011;52411;52.716;6.696;2022-08-19T13:16:29;9.27;;;8.38;;
65691;SDS011;52411;52.716;6.696;2022-08-19T13:18:55;10.52;;;8.40;;
65691;SDS011;52411;52.716;6.696;2022-08-19T13:21:23;11.27;;;9.38;;
65691;SDS011;52411;52.716;6.696;2022-08-19T13:23:50;11.70;;;9.63;;
65691;SDS011;52411;52.716;6.696;2022-08-19T13:26:17;11.85;;;10.50;;
65691;SDS011;52411;52.716;6.696;2022-08-19T13:28:44;14.45;;;12.52;;
65691;SDS011;52411;52.716;6.696;2022-08-19T13:31:30;12.82;;;11.52;;
65691;SDS011;52411;52.716;6.696;2022-08-19T13:34:17;12.38;;;11.07;;
65691;SDS011;52411;52.716;6.696;2022-08-19T13:36:45;15.88;;;13.23;;
65691;SDS011;52411;52.716;6.696;2022-08-19T13:39:10;13.45;;;11.23;;
65691;SDS011;52411;52.716;6.696;2022-08-19T13:41:37;12.35;;;11.05;;
65691;SDS011;52411;52.716;6.696;2022-08-19T13:44:13;11.13;;;9.63;;
65691;SDS011;52411;52.716;6.696;2022-08-19T13:46:39;11.13;;;9.30;;
65691;SDS011;52411;52.716;6.696;2022-08-19T13:49:05;10.30;;;8.27;;
65691;SDS011;52411;52.716;6.696;2022-08-19T13:51:31;8.20;;;6.90;;
65691;SDS011;52411;52.716;6.696;2022-08-19T13:53:56;9.10;;;7.10;;
65691;SDS011;52411;52.716;6.696;2022-08-19T13:56:22;7.88;;;6.85;;
65691;SDS011;52411;52.716;6.696;2022-08-19T13:58:48;8.23;;;6.43;;
65691;SDS011;52411;52.716;6.696;2022-08-19T14:01:18;8.15;;;6.80;;
65691;SDS011;52411;52.716;6.696;2022-08-19T14:03:45;10.10;;;8.60;;
65691;SDS011;52411;52.716;6.696;2022-08-19T14:06:11;15.60;;;11.98;;
65691;SDS011;52411;52.716;6.696;2022-08-19T14:08:36;13.52;;;10.75;;
65691;SDS011;52411;52.716;6.696;2022-08-19T14:11:04;16.00;;;12.20;;
65691;SDS011;52411;52.716;6.696;2022-08-19T14:13:30;13.13;;;11.38;;
65691;SDS011;52411;52.716;6.696;2022-08-19T14:15:58;14.18;;;10.77;;
65691;SDS011;52411;52.716;6.696;2022-08-19T14:18:24;11.02;;;9.68;;
65691;SDS011;52411;52.716;6.696;2022-08-19T14:20:51;15.10;;;10.10;;
65691;SDS011;52411;52.716;6.696;2022-08-19T14:23:17;10.63;;;6.72;;
65691;SDS011;52411;52.716;6.696;2022-08-19T14:25:43;11.98;;;7.97;;
65691;SDS011;52411;52.716;6.696;2022-08-19T14:28:09;8.35;;;6.22;;
65691;SDS011;52411;52.716;6.696;2022-08-19T14:30:35;11.85;;;7.13;;
65691;SDS011;52411;52.716;6.696;2022-08-19T14:33:02;12.00;;;8.55;;
65691;SDS011;52411;52.716;6.696;2022-08-19T14:35:30;13.57;;;8.68;;
65691;SDS011;52411;52.716;6.696;2022-08-19T14:37:59;9.20;;;7.63;;
65691;SDS011;52411;52.716;6.696;2022-08-19T14:40:26;11.50;;;8.10;;
65691;SDS011;52411;52.716;6.696;2022-08-19T14:42:54;13.75;;;9.27;;
65691;SDS011;52411;52.716;6.696;2022-08-19T14:45:24;10.65;;;8.35;;